createdAt,value
2019-04-14T00:01:02.246Z,6.00
2019-04-14T00:03:45.510Z,6.00
2019-04-14T00:06:11.808Z,5.90
2019-04-14T00:08:39.364Z,5.90
2019-04-14T00:11:06.249Z,5.90
2019-04-14T00:13:32.795Z,6.00
2019-04-14T00:16:00.740Z,5.90
2019-04-14T00:18:27.289Z,5.90
2019-04-14T00:20:53.646Z,5.90
2019-04-14T00:23:19.912Z,5.90
2019-04-14T00:25:46.265Z,5.80
2019-04-14T00:28:12.623Z,5.80
2019-04-14T00:30:38.969Z,5.80
2019-04-14T00:33:12.849Z,5.80
2019-04-14T00:35:41.010Z,5.80
2019-04-14T00:44:10.871Z,5.80
2019-04-14T00:46:47.758Z,5.80
2019-04-14T00:49:14.018Z,5.80
2019-04-14T00:51:41.349Z,5.80
2019-04-14T00:54:08.782Z,5.80
2019-04-14T00:56:36.851Z,5.80
2019-04-14T00:59:03.426Z,5.80
2019-04-14T01:01:30.838Z,5.80
2019-04-14T01:03:57.222Z,5.80
2019-04-14T01:06:23.487Z,5.80
2019-04-14T01:08:51.133Z,5.80
2019-04-14T01:11:18.200Z,5.80
2019-04-14T01:13:44.459Z,5.70
2019-04-14T01:16:16.599Z,5.70
2019-04-14T01:18:39.123Z,5.70
2019-04-14T01:21:06.709Z,5.70
2019-04-14T01:23:32.981Z,5.70
2019-04-14T01:26:00.562Z,5.70
2019-04-14T01:28:26.999Z,5.70
2019-04-14T01:31:14.036Z,5.60
2019-04-14T01:33:40.382Z,5.70
2019-04-14T01:36:06.681Z,5.60
2019-04-14T01:38:34.256Z,5.60
2019-04-14T01:41:02.013Z,5.50
2019-04-14T01:43:28.425Z,5.60
2019-04-14T01:46:07.180Z,5.60
2019-04-14T01:48:23.587Z,5.60
2019-04-14T01:50:51.819Z,5.50
2019-04-14T01:53:20.749Z,5.60
2019-04-14T01:55:59.119Z,5.60
2019-04-14T01:58:27.485Z,5.60
2019-04-14T02:01:01.932Z,5.60
2019-04-14T02:03:28.292Z,5.50
2019-04-14T02:05:56.459Z,5.50
2019-04-14T02:08:24.027Z,5.50
2019-04-14T02:10:50.350Z,5.50
2019-04-14T02:13:16.610Z,5.50
2019-04-14T02:15:44.163Z,5.50
2019-04-14T02:18:11.991Z,5.50
2019-04-14T02:20:38.723Z,5.50
2019-04-14T02:23:06.143Z,5.50
2019-04-14T02:25:33.803Z,5.50
2019-04-14T02:28:00.295Z,5.40
2019-04-14T02:30:33.815Z,5.40
2019-04-14T02:33:23.953Z,5.40
2019-04-14T02:35:55.422Z,5.40
2019-04-14T02:38:24.816Z,5.40
2019-04-14T02:43:24.718Z,5.30
2019-04-14T02:45:47.171Z,5.30
2019-04-14T02:48:25.481Z,5.30
2019-04-14T02:53:09.082Z,5.30
2019-04-14T02:55:34.214Z,5.30
2019-04-14T02:58:04.337Z,5.30
2019-04-14T03:00:41.865Z,5.20
2019-04-14T03:05:39.609Z,5.20
2019-04-14T03:07:59.904Z,5.10
2019-04-14T03:13:01.829Z,5.10
2019-04-14T03:15:28.037Z,5.10
2019-04-14T03:18:25.675Z,5.10
2019-04-14T03:21:01.594Z,5.10
2019-04-14T03:23:33.262Z,5.10
2019-04-14T03:26:05.093Z,5.00
2019-04-14T03:28:38.527Z,5.10
2019-04-14T03:38:54.918Z,5.00
2019-04-14T03:41:09.151Z,4.90
2019-04-14T03:43:30.815Z,4.90
2019-04-14T03:46:09.626Z,4.90
2019-04-14T03:50:56.464Z,4.80
2019-04-14T03:55:55.622Z,4.80
2019-04-14T03:58:18.265Z,4.80
2019-04-14T04:00:44.901Z,4.80
2019-04-14T04:03:12.761Z,4.80
2019-04-14T04:05:39.314Z,4.80
2019-04-14T04:08:05.651Z,4.80
2019-04-14T04:10:33.624Z,4.80
2019-04-14T04:12:59.864Z,4.80
2019-04-14T04:15:28.008Z,4.80
2019-04-14T04:18:00.204Z,4.80
2019-04-14T04:20:35.007Z,4.90
2019-04-14T04:23:20.510Z,4.80
2019-04-14T04:25:52.923Z,4.80
2019-04-14T04:28:38.481Z,4.90
2019-04-14T04:31:09.624Z,4.80
2019-04-14T04:33:43.737Z,4.80
2019-04-14T04:36:18.188Z,4.80
2019-04-14T04:38:55.599Z,4.80
2019-04-14T04:41:23.172Z,4.80
2019-04-14T04:43:49.627Z,4.80
2019-04-14T04:46:19.719Z,4.80
2019-04-14T04:48:58.265Z,4.80
2019-04-14T04:51:14.286Z,4.80
2019-04-14T04:53:40.529Z,4.70
2019-04-14T04:56:10.053Z,4.70
2019-04-14T04:58:37.161Z,4.70
2019-04-14T05:01:03.582Z,4.70
2019-04-14T05:03:29.936Z,4.60
2019-04-14T05:06:07.316Z,4.60
2019-04-14T05:08:34.837Z,4.70
2019-04-14T05:11:18.705Z,4.70
2019-04-14T05:13:47.003Z,4.70
2019-04-14T05:16:13.232Z,4.60
2019-04-14T05:18:40.606Z,4.60
2019-04-14T05:21:08.099Z,4.70
2019-04-14T05:23:34.506Z,4.60
2019-04-14T05:26:00.801Z,4.60
2019-04-14T05:28:27.069Z,4.60
2019-04-14T05:30:54.585Z,4.60
2019-04-14T05:33:21.046Z,4.70
2019-04-14T05:35:47.370Z,4.60
2019-04-14T05:38:14.676Z,4.70
2019-04-14T05:40:41.163Z,4.70
2019-04-14T05:43:07.416Z,4.70
2019-04-14T05:45:33.633Z,4.80
2019-04-14T05:48:00.984Z,4.80
2019-04-14T05:50:27.425Z,4.80
2019-04-14T05:52:53.867Z,4.90
2019-04-14T05:55:20.097Z,4.90
2019-04-14T05:57:46.375Z,4.80
2019-04-14T06:00:16.722Z,4.80
2019-04-14T06:02:44.135Z,4.90
2019-04-14T06:05:11.760Z,4.90
2019-04-14T06:07:38.680Z,4.90
2019-04-14T06:10:05.629Z,5.00
2019-04-14T06:12:31.854Z,5.10
2019-04-14T06:14:58.112Z,5.20
2019-04-14T06:17:24.354Z,5.20
2019-04-14T06:19:50.665Z,5.30
2019-04-14T06:22:17.156Z,5.40
2019-04-14T06:24:43.401Z,5.40
2019-04-14T06:27:09.622Z,5.40
2019-04-14T06:29:35.872Z,5.40
2019-04-14T06:32:22.552Z,5.50
2019-04-14T06:34:50.676Z,5.40
2019-04-14T06:37:25.031Z,5.50
2019-04-14T06:39:52.977Z,5.40
2019-04-14T06:42:19.791Z,5.40
2019-04-14T06:44:46.032Z,5.40
2019-04-14T06:47:15.622Z,5.50
2019-04-14T06:49:48.722Z,5.60
2019-04-14T06:52:10.050Z,5.60
2019-04-14T06:54:36.390Z,5.70
2019-04-14T06:57:02.677Z,6.00
2019-04-14T06:59:29.430Z,6.40
2019-04-14T07:01:55.820Z,6.90
2019-04-14T07:04:22.074Z,7.20
2019-04-14T07:06:51.285Z,7.50
2019-04-14T07:09:16.901Z,7.70
2019-04-14T07:11:43.252Z,7.90
2019-04-14T07:14:09.494Z,8.10
2019-04-14T07:16:35.719Z,8.40
2019-04-14T07:19:02.216Z,8.40
2019-04-14T07:21:28.487Z,8.40
2019-04-14T07:23:54.747Z,8.40
2019-04-14T07:26:20.976Z,8.40
2019-04-14T07:28:56.576Z,8.40
2019-04-14T07:31:29.274Z,8.50
2019-04-14T07:34:09.355Z,8.60
2019-04-14T07:36:46.396Z,8.70
2019-04-14T07:39:31.296Z,8.60
2019-04-14T07:42:16.456Z,8.60
2019-04-14T07:44:50.735Z,8.80
2019-04-14T07:47:30.808Z,8.90
2019-04-14T07:49:58.990Z,9.00
2019-04-14T07:52:32.830Z,9.20
2019-04-14T07:55:06.672Z,9.40
2019-04-14T07:57:34.920Z,9.50
2019-04-14T08:00:09.533Z,9.50
2019-04-14T08:02:37.792Z,9.60
2019-04-14T08:05:06.664Z,9.50
2019-04-14T08:07:33.062Z,9.40
2019-04-14T08:09:59.407Z,9.30
2019-04-14T08:12:25.651Z,9.50
2019-04-14T08:14:51.871Z,9.50
2019-04-14T08:17:18.519Z,9.60
2019-04-14T08:19:44.760Z,9.60
2019-04-14T08:22:10.989Z,9.70
2019-04-14T08:24:37.253Z,9.60
2019-04-14T08:27:03.484Z,9.60
2019-04-14T08:29:29.725Z,9.50
2019-04-14T08:31:55.956Z,9.40
2019-04-14T08:34:22.607Z,9.40
2019-04-14T08:36:48.834Z,9.50
2019-04-14T08:39:15.078Z,9.40
2019-04-14T08:41:48.941Z,9.30
2019-04-14T08:44:17.103Z,9.30
2019-04-14T08:47:00.191Z,9.20
2019-04-14T08:49:44.890Z,9.40
2019-04-14T08:52:19.166Z,9.40
2019-04-14T08:54:47.314Z,9.50
2019-04-14T08:57:32.321Z,9.50
2019-04-14T09:00:00.438Z,9.60
2019-04-14T09:02:34.560Z,9.60
2019-04-14T09:05:05.580Z,9.60
2019-04-14T09:07:33.736Z,9.60
2019-04-14T09:10:10.649Z,9.90
2019-04-14T09:12:41.692Z,10.10
2019-04-14T09:15:08.164Z,10.50
2019-04-14T09:17:34.389Z,11.00
2019-04-14T09:20:00.668Z,11.30
2019-04-14T09:22:26.903Z,11.50
2019-04-14T09:24:53.143Z,11.50
2019-04-14T09:27:19.502Z,11.50
2019-04-14T09:29:45.791Z,11.60
2019-04-14T09:32:12.539Z,11.90
2019-04-14T09:34:38.765Z,12.00
2019-04-14T09:37:05.008Z,11.90
2019-04-14T09:39:31.257Z,12.10
2019-04-14T09:41:57.603Z,12.20
2019-04-14T09:44:23.836Z,12.10
2019-04-14T09:46:50.109Z,12.30
2019-04-14T09:49:16.374Z,12.50
2019-04-14T09:51:42.707Z,12.50
2019-04-14T09:54:09.630Z,12.20
2019-04-14T09:56:36.450Z,12.10
2019-04-14T09:59:03.195Z,12.10
2019-04-14T10:01:29.434Z,12.00
2019-04-14T10:03:55.764Z,11.80
2019-04-14T10:06:22.163Z,11.60
2019-04-14T10:08:48.504Z,11.20
2019-04-14T10:11:14.753Z,11.00
2019-04-14T10:13:40.981Z,10.80
2019-04-14T10:16:07.256Z,10.70
2019-04-14T10:18:33.526Z,10.60
2019-04-14T10:20:59.812Z,10.50
2019-04-14T10:23:36.195Z,10.60
2019-04-14T10:26:02.632Z,10.50
2019-04-14T10:28:28.992Z,10.60
2019-04-14T10:30:55.250Z,10.80
2019-04-14T10:33:21.475Z,10.90
2019-04-14T10:35:47.737Z,11.00
2019-04-14T10:38:13.996Z,11.00
2019-04-14T10:40:40.249Z,11.00
2019-04-14T10:43:08.407Z,11.10
2019-04-14T10:45:34.652Z,11.00
2019-04-14T10:48:00.919Z,10.80
2019-04-14T10:50:31.036Z,10.70
2019-04-14T10:52:55.311Z,10.70
2019-04-14T10:55:21.940Z,10.40
2019-04-14T10:57:48.208Z,10.30
2019-04-14T11:00:17.901Z,10.30
2019-04-14T11:02:44.162Z,10.30
2019-04-14T11:05:10.909Z,10.30
2019-04-14T11:07:37.157Z,10.20
2019-04-14T11:10:08.069Z,10.10
2019-04-14T11:12:34.337Z,10.10
2019-04-14T11:15:00.578Z,10.00
2019-04-14T11:17:26.829Z,9.90
2019-04-14T11:19:53.348Z,9.70
2019-04-14T11:22:19.602Z,9.60
2019-04-14T11:24:45.842Z,9.50
2019-04-14T11:27:12.070Z,9.50
2019-04-14T11:29:38.363Z,9.40
2019-04-14T11:32:12.328Z,9.40
2019-04-14T11:34:49.382Z,9.40
2019-04-14T11:37:34.375Z,9.40
2019-04-14T11:40:01.291Z,9.40
2019-04-14T11:42:27.474Z,9.40
2019-04-14T11:44:53.745Z,9.30
2019-04-14T11:47:20.106Z,9.30
2019-04-14T11:49:46.333Z,9.30
2019-04-14T11:52:12.558Z,9.30
2019-04-14T11:54:38.906Z,9.30
2019-04-14T11:57:05.261Z,9.20
2019-04-14T11:59:33.420Z,9.10
2019-04-14T12:02:04.336Z,9.10
2019-04-14T12:04:32.453Z,9.20
2019-04-14T12:07:17.390Z,9.20
2019-04-14T12:10:00.469Z,9.20
2019-04-14T12:12:26.813Z,9.30
2019-04-14T12:14:53.055Z,9.30
2019-04-14T12:17:19.322Z,9.30
2019-04-14T12:19:45.551Z,9.30
2019-04-14T12:22:11.835Z,9.40
2019-04-14T12:24:38.064Z,9.40
2019-04-14T12:27:04.312Z,9.50
2019-04-14T12:29:30.601Z,9.60
2019-04-14T12:31:57.574Z,9.60
2019-04-14T12:34:23.847Z,9.60
2019-04-14T12:36:50.198Z,9.60
2019-04-14T12:39:22.252Z,9.70
2019-04-14T12:42:07.231Z,9.80
2019-04-14T12:44:41.056Z,9.80
2019-04-14T12:47:18.178Z,9.70
2019-04-14T12:49:46.348Z,9.60
2019-04-14T12:52:22.027Z,9.60
2019-04-14T12:54:48.617Z,9.60
2019-04-14T12:57:16.952Z,9.70
2019-04-14T12:59:43.202Z,9.80
2019-04-14T13:02:17.505Z,9.80
2019-04-14T13:04:43.787Z,9.80
2019-04-14T13:07:10.120Z,9.90
2019-04-14T13:09:36.412Z,9.90
2019-04-14T13:12:02.858Z,9.90
2019-04-14T13:14:29.060Z,9.90
2019-04-14T13:16:55.545Z,10.00
2019-04-14T13:19:21.787Z,9.90
2019-04-14T13:21:48.059Z,9.90
2019-04-14T13:24:14.291Z,9.90
2019-04-14T13:26:40.535Z,9.90
2019-04-14T13:29:06.799Z,9.90
2019-04-14T13:31:33.059Z,9.80
2019-04-14T13:33:59.563Z,9.80
2019-04-14T13:36:25.909Z,9.60
2019-04-14T13:38:52.201Z,9.60
2019-04-14T13:41:18.486Z,9.60
2019-04-14T13:43:44.738Z,9.50
2019-04-14T13:46:10.970Z,9.50
2019-04-14T13:48:38.058Z,9.60
2019-04-14T13:51:04.335Z,9.60
2019-04-14T13:53:30.565Z,9.60
2019-04-14T13:55:56.836Z,9.60
2019-04-14T13:58:23.071Z,9.70
2019-04-14T14:00:49.305Z,9.70
2019-04-14T14:03:15.541Z,9.70
2019-04-14T14:05:43.611Z,9.70
2019-04-14T14:08:10.006Z,9.80
2019-04-14T14:10:36.256Z,9.80
2019-04-14T14:13:10.145Z,9.80
2019-04-14T14:15:47.543Z,9.80
2019-04-14T14:18:18.571Z,9.90
2019-04-14T14:21:03.180Z,9.80
2019-04-14T14:23:47.754Z,9.90
2019-04-14T14:26:15.902Z,10.00
2019-04-14T14:28:42.188Z,10.00
2019-04-14T14:31:08.427Z,9.90
2019-04-14T14:33:34.672Z,9.90
2019-04-14T14:36:00.984Z,9.90
2019-04-14T14:38:27.199Z,9.90
2019-04-14T14:40:54.742Z,10.00
2019-04-14T14:43:20.985Z,10.00
2019-04-14T14:45:49.146Z,10.00
2019-04-14T14:48:23.175Z,10.10
2019-04-14T14:50:51.329Z,10.10
2019-04-14T14:53:17.662Z,10.20
2019-04-14T14:55:43.918Z,10.20
2019-04-14T14:58:10.154Z,10.20
2019-04-14T15:00:36.390Z,10.30
2019-04-14T15:03:02.985Z,10.20
2019-04-14T15:05:29.521Z,10.20
2019-04-14T15:07:57.795Z,10.20
2019-04-14T15:10:24.058Z,10.20
2019-04-14T15:12:50.268Z,10.30
2019-04-14T15:15:16.523Z,10.20
2019-04-14T15:17:42.756Z,10.10
2019-04-14T15:20:09.239Z,10.10
2019-04-14T15:22:35.518Z,10.10
2019-04-14T15:25:01.919Z,10.10
2019-04-14T15:27:28.165Z,10.10
2019-04-14T15:29:55.949Z,10.10
2019-04-14T15:32:22.217Z,10.00
2019-04-14T15:34:48.550Z,10.00
2019-04-14T15:37:14.935Z,10.10
2019-04-14T15:39:41.599Z,10.10
2019-04-14T15:42:07.837Z,10.00
2019-04-14T15:44:34.090Z,10.00
2019-04-14T15:48:12.203Z,10.00
2019-04-14T15:50:38.512Z,10.00
2019-04-14T15:53:04.818Z,10.10
2019-04-14T15:55:31.348Z,10.10
2019-04-14T15:58:02.247Z,10.10
2019-04-14T16:00:39.344Z,10.10
2019-04-14T16:03:24.034Z,10.00
2019-04-14T16:06:08.646Z,9.90
2019-04-14T16:08:53.474Z,9.80
2019-04-14T16:11:36.674Z,9.80
2019-04-14T16:14:08.583Z,9.70
2019-04-14T16:16:39.607Z,9.70
2019-04-14T16:19:07.764Z,9.60
2019-04-14T16:21:34.005Z,9.60
2019-04-14T16:24:00.426Z,9.70
2019-04-14T16:26:28.569Z,9.90
2019-04-14T16:29:02.464Z,9.90
2019-04-14T16:31:44.634Z,10.00
2019-04-14T16:34:12.829Z,10.10
2019-04-14T16:36:40.373Z,10.10
2019-04-14T16:39:06.658Z,10.10
2019-04-14T16:41:32.896Z,10.00
2019-04-14T16:43:59.155Z,10.00
2019-04-14T16:46:25.388Z,9.90
2019-04-14T16:48:51.665Z,9.80
2019-04-14T16:51:22.677Z,9.80
2019-04-14T16:53:48.958Z,9.70
2019-04-14T16:56:17.123Z,9.70
2019-04-14T16:58:48.196Z,9.70
2019-04-14T17:01:16.358Z,9.70
2019-04-14T17:03:42.776Z,9.60
2019-04-14T17:06:08.952Z,9.50
2019-04-14T17:08:35.250Z,9.50
2019-04-14T17:11:01.477Z,9.50
2019-04-14T17:13:29.715Z,9.40
2019-04-14T17:15:57.864Z,9.30
2019-04-14T17:18:44.527Z,9.30
2019-04-14T17:21:12.662Z,9.30
2019-04-14T17:23:43.508Z,9.20
2019-04-14T17:26:28.395Z,9.20
2019-04-14T17:28:56.593Z,9.20
2019-04-14T17:31:40.191Z,9.20
2019-04-14T17:34:17.062Z,9.20
2019-04-14T17:36:50.887Z,9.20
2019-04-14T17:39:19.033Z,9.20
2019-04-14T17:44:44.776Z,9.10
2019-04-14T17:47:12.939Z,9.10
2019-04-14T17:49:46.912Z,9.10
2019-04-14T17:52:30.301Z,9.10
2019-04-14T17:55:15.039Z,9.10
2019-04-14T17:57:43.151Z,9.00
2019-04-14T18:03:58.953Z,9.10
2019-04-14T18:06:28.124Z,9.00
2019-04-14T18:08:59.418Z,9.00
2019-04-14T18:11:27.885Z,9.00
2019-04-14T18:14:05.184Z,9.00
2019-04-14T18:16:33.415Z,9.00
2019-04-14T18:19:01.614Z,9.00
2019-04-14T18:21:28.944Z,9.00
2019-04-14T18:23:55.252Z,9.00
2019-04-14T18:26:21.561Z,9.00
2019-04-14T18:28:58.423Z,9.00
2019-04-14T18:31:39.701Z,9.00
2019-04-14T18:34:13.949Z,9.00
2019-04-14T18:36:48.081Z,9.00
2019-04-14T18:39:28.201Z,9.00
2019-04-14T18:42:05.283Z,9.00
2019-04-14T18:44:33.480Z,8.90
2019-04-14T18:47:01.666Z,9.00
2019-04-14T18:52:26.062Z,9.00
2019-04-14T18:55:11.187Z,9.00
2019-04-14T18:57:43.516Z,9.00
2019-04-14T19:00:18.065Z,9.00
2019-04-14T19:02:44.341Z,8.90
2019-04-14T19:05:12.672Z,8.90
2019-04-14T19:07:38.991Z,8.90
2019-04-14T19:10:06.749Z,8.90
2019-04-14T19:12:38.999Z,8.90
2019-04-14T19:15:11.154Z,8.90
2019-04-14T19:17:45.213Z,8.90
2019-04-14T19:20:13.644Z,8.90
2019-04-14T19:22:39.900Z,8.90
2019-04-14T19:25:08.389Z,8.90
2019-04-14T19:27:34.974Z,8.90
2019-04-14T19:30:01.660Z,8.90
2019-04-14T19:32:28.294Z,8.90
2019-04-14T19:34:54.607Z,8.90
2019-04-14T19:37:20.861Z,8.90
2019-04-14T19:39:47.433Z,8.90
2019-04-14T19:42:13.701Z,8.90
2019-04-14T19:44:40.390Z,8.90
2019-04-14T19:47:06.671Z,8.90
2019-04-14T19:49:34.852Z,8.90
2019-04-14T19:52:01.119Z,9.00
2019-04-14T19:54:27.432Z,8.90
2019-04-14T19:56:53.779Z,8.90
2019-04-14T19:59:20.064Z,8.90
2019-04-14T20:01:48.485Z,8.90
2019-04-14T20:04:14.773Z,8.90
2019-04-14T20:06:47.010Z,8.90
2019-04-14T20:09:14.835Z,8.90
2019-04-14T20:11:41.164Z,8.90
2019-04-14T20:14:07.534Z,8.90
2019-04-14T20:16:44.405Z,8.90
2019-04-14T20:19:21.302Z,8.90
2019-04-14T20:21:55.129Z,8.90
2019-04-14T20:24:23.327Z,8.80
2019-04-14T20:27:08.606Z,8.80
2019-04-14T20:29:36.876Z,8.80
2019-04-14T20:32:05.134Z,8.80
2019-04-14T20:34:31.513Z,8.70
2019-04-14T20:36:57.790Z,8.70
2019-04-14T20:39:24.336Z,8.60
2019-04-14T20:41:50.919Z,8.60
2019-04-14T20:44:17.724Z,8.60
2019-04-14T20:46:49.445Z,8.50
2019-04-14T20:49:15.951Z,8.50
2019-04-14T20:51:42.283Z,8.50
2019-04-14T20:54:10.553Z,8.40
2019-04-14T20:56:36.798Z,8.50
2019-04-14T20:59:22.938Z,8.40
2019-04-14T21:02:00.437Z,8.40
2019-04-14T21:04:34.639Z,8.40
2019-04-14T21:07:02.904Z,8.40
2019-04-14T21:09:49.002Z,8.40
2019-04-14T21:12:22.938Z,8.30
2019-04-14T21:14:54.178Z,8.30
2019-04-14T21:17:22.333Z,8.20
2019-04-14T21:19:50.473Z,8.20
2019-04-14T21:22:30.655Z,8.30
2019-04-14T21:25:17.082Z,8.20
2019-04-14T21:27:45.237Z,8.20
2019-04-14T21:30:14.673Z,8.20
2019-04-14T21:32:42.811Z,8.20
2019-04-14T21:35:14.046Z,8.20
2019-04-14T21:37:42.213Z,8.20
2019-04-14T21:40:16.507Z,8.10
2019-04-14T21:42:43.141Z,8.10
2019-04-14T21:45:09.794Z,8.10
2019-04-14T21:47:36.042Z,8.00
2019-04-14T21:50:05.440Z,8.00
2019-04-14T21:52:36.449Z,8.00
2019-04-14T21:55:03.878Z,8.00
2019-04-14T21:57:38.132Z,7.90
2019-04-14T22:00:25.953Z,7.90
2019-04-14T22:03:12.387Z,7.90
2019-04-14T22:05:49.832Z,7.80
2019-04-14T22:08:29.991Z,7.80
2019-04-14T22:10:58.242Z,7.80
2019-04-14T22:13:24.478Z,7.70
2019-04-14T22:15:50.725Z,7.70
2019-04-14T22:18:17.583Z,7.70
2019-04-14T22:20:43.815Z,7.70
2019-04-14T22:23:12.023Z,7.60
2019-04-14T22:25:38.330Z,7.60
2019-04-14T22:28:04.560Z,7.60
2019-04-14T22:30:30.802Z,7.50
2019-04-14T22:32:57.038Z,7.50
2019-04-14T22:35:23.409Z,7.50
2019-04-14T22:37:49.652Z,7.50
2019-04-14T22:40:16.092Z,7.40
2019-04-14T22:42:42.421Z,7.40
2019-04-14T22:45:09.369Z,7.30
2019-04-14T22:47:35.613Z,7.30
2019-04-14T22:50:02.964Z,7.30
2019-04-14T22:52:29.224Z,7.30
2019-04-14T22:54:55.438Z,7.40
2019-04-14T22:57:21.690Z,7.30
2019-04-14T22:59:47.932Z,7.30
2019-04-14T23:02:32.950Z,7.20
2019-04-14T23:05:13.545Z,7.20
2019-04-14T23:08:00.038Z,7.20
2019-04-14T23:10:46.375Z,7.20
2019-04-14T23:13:32.802Z,7.20
2019-04-14T23:16:06.705Z,7.20
2019-04-14T23:18:34.886Z,7.20
2019-04-14T23:21:03.022Z,7.20
2019-04-14T23:23:46.705Z,7.20
2019-04-14T23:26:13.259Z,7.10
2019-04-14T23:28:39.513Z,7.10
2019-04-14T23:31:05.838Z,7.00
2019-04-14T23:33:32.096Z,7.00
2019-04-14T23:35:58.348Z,6.90
2019-04-14T23:38:24.583Z,6.90
2019-04-14T23:40:50.844Z,6.90
2019-04-14T23:43:17.089Z,6.90
2019-04-14T23:45:43.373Z,6.90
2019-04-14T23:48:09.713Z,6.90
2019-04-14T23:50:36.064Z,7.00
2019-04-14T23:53:08.378Z,7.00
2019-04-14T23:55:34.616Z,7.00
2019-04-14T23:58:00.890Z,7.00
